Wednesday, June 20, 2018, 10:58 AM EDT
Back to Local

K1P1, Plymouth, Plymouth Municipal Airport

Location: Plymouth, NH, United States Lat: 43.779
Local Time: 10:58 AM EDT (14:58 GMT) Lon: -71.754
Time Zone: US/Eastern Elev: 505 ft

Show me the last for .
Show Decoded

2018-06-20 10:35 METAR K1P1 201435Z AUTO 00000KT CLR 23/09 A2986 RMK AO2 T02250094 PWINO =
2018-06-20 10:15 METAR K1P1 201415Z AUTO 00000KT CLR 22/10 A2987 RMK AO2 T02210095 PWINO =
2018-06-20 09:55 METAR K1P1 201355Z AUTO 00000KT CLR 21/12 A2987 RMK AO2 T02070120 PWINO =
2018-06-20 09:35 METAR K1P1 201335Z AUTO 00000KT CLR 19/12 A2988 RMK AO2 T01940116 PWINO =
2018-06-20 09:15 METAR K1P1 201315Z AUTO 00000KT CLR 18/12 A2989 RMK AO2 T01840118 PWINO =
2018-06-20 08:55 METAR K1P1 201255Z AUTO 00000KT CLR 17/11 A2990 RMK AO2 T01680110 PWINO =
2018-06-20 08:35 METAR K1P1 201235Z AUTO 00000KT CLR 16/10 A2991 RMK AO2 T01550104 PWINO =
2018-06-20 08:15 METAR K1P1 201215Z AUTO 00000KT CLR 14/10 A2992 RMK AO2 T01400101 PWINO =
2018-06-20 07:55 METAR K1P1 201155Z AUTO 00000KT CLR 13/10 A2992 RMK AO2 T01290098 10129 20071
                 PWINO =
2018-06-20 07:35 METAR K1P1 201135Z AUTO 00000KT 12/10 A2992 RMK AO2 T01180098 PWINO =
2018-06-20 07:15 METAR K1P1 201115Z AUTO 00000KT 11/10 A2992 RMK AO2 T01090095 PWINO =
2018-06-20 06:55 METAR K1P1 201055Z AUTO 00000KT 11/10 A2992 RMK AO2 T01070101 PWINO =
2018-06-20 06:35 METAR K1P1 201035Z AUTO 00000KT 10/09 A2992 RMK AO2 T00960090 PWINO =
2018-06-20 06:15 METAR K1P1 201015Z AUTO 00000KT 09/08 A2991 RMK AO2 T00860081 PWINO =
2018-06-20 05:55 METAR K1P1 200955Z AUTO 00000KT 08/07 A2991 RMK AO2 T00790074 PWINO =
2018-06-20 05:35 METAR K1P1 200935Z AUTO 00000KT 08/07 A2991 RMK AO2 T00750070 PWINO =
2018-06-20 05:15 METAR K1P1 200915Z AUTO 00000KT 07/07 A2991 RMK AO2 T00710066 PWINO =
2018-06-20 04:55 METAR K1P1 200855Z AUTO 00000KT 08/07 A2991 RMK AO2 T00780072 PWINO =
2018-06-20 04:35 METAR K1P1 200835Z AUTO 00000KT 08/07 A2991 RMK AO2 T00790072 PWINO =
2018-06-20 04:15 METAR K1P1 200815Z AUTO 00000KT 08/07 A2990 RMK AO2 T00800073 PWINO =
2018-06-20 03:55 METAR K1P1 200755Z AUTO 00000KT 09/08 A2990 RMK AO2 T00850077 PWINO =
2018-06-20 03:35 METAR K1P1 200735Z AUTO 00000KT 09/08 A2990 RMK AO2 T00880080 PWINO =
2018-06-20 03:15 METAR K1P1 200715Z AUTO 00000KT 09/08 A2990 RMK AO2 T00920084 PWINO =
2018-06-20 02:55 METAR K1P1 200655Z AUTO 00000KT 09/08 A2990 RMK AO2 T00920083 PWINO =
2018-06-20 02:35 METAR K1P1 200635Z AUTO 00000KT 10/09 A2990 RMK AO2 T00980088 PWINO =
2018-06-20 02:15 METAR K1P1 200615Z AUTO 00000KT 10/09 A2990 RMK AO2 T01020091 PWINO =
2018-06-20 01:55 METAR K1P1 200555Z AUTO 00000KT 11/09 A2990 RMK AO2 T01050091 10205 20105 PWINO
                 =
2018-06-20 01:35 METAR K1P1 200535Z AUTO 00000KT 12/10 A2991 RMK AO2 T01150096 PWINO =
2018-06-20 01:15 METAR K1P1 200515Z AUTO 00000KT 12/10 A2991 RMK AO2 T01170098 PWINO =
2018-06-20 00:55 METAR K1P1 200455Z AUTO 00000KT CLR 13/09 A2991 RMK AO2 T01280094 PWINO =
2018-06-20 00:35 METAR K1P1 200435Z AUTO 29003KT CLR 14/10 A2991 RMK AO2 T01360098 PWINO =
2018-06-20 00:15 METAR K1P1 200415Z AUTO 00000KT CLR 14/10 A2991 RMK AO2 T01370101 PWINO =
2018-06-19 23:55 METAR K1P1 200355Z AUTO 31004KT CLR 15/10 A2991 RMK AO2 T01520097 402370123
                 PWINO =
2018-06-19 23:35 METAR K1P1 200335Z AUTO 29005KT CLR 14/10 A2990 RMK AO2 T01370102 PWINO =
2018-06-19 23:15 METAR K1P1 200315Z AUTO 00000KT 13/10 A2991 RMK AO2 T01290104 PWINO =
2018-06-19 22:55 METAR K1P1 200255Z AUTO 00000KT CLR 13/10 A2990 RMK AO2 T01330100 PWINO =
2018-06-19 22:35 METAR K1P1 200235Z AUTO 00000KT CLR 14/11 A2990 RMK AO2 T01410105 PWINO =
2018-06-19 22:15 METAR K1P1 200215Z AUTO 00000KT CLR 16/10 A2989 RMK AO2 T01590101 PWINO =
2018-06-19 21:55 METAR K1P1 200155Z AUTO 32005KT CLR 17/10 A2989 RMK AO2 T01710095 PWINO =
2018-06-19 21:35 METAR K1P1 200135Z AUTO 31007KT CLR 18/10 A2989 RMK AO2 T01760095 PWINO =
2018-06-19 21:15 METAR K1P1 200115Z AUTO 31007KT CLR 18/10 A2988 RMK AO2 T01790096 PWINO =
2018-06-19 20:55 METAR K1P1 200055Z AUTO 30005KT CLR 18/10 A2987 RMK AO2 T01760100 PWINO =
2018-06-19 20:35 METAR K1P1 200035Z AUTO 32006KT CLR 19/09 A2987 RMK AO2 T01860093 PWINO =
2018-06-19 20:15 METAR K1P1 200015Z AUTO 32005KT CLR 20/09 A2986 RMK AO2 T01970089 PWINO =
2018-06-19 19:55 METAR K1P1 192355Z AUTO 30007KT CLR 21/09 A2985 RMK AO2 T02060088 10237 20206
                 PWINO =
2018-06-19 19:35 METAR K1P1 192335Z AUTO 29009KT CLR 21/09 A2986 RMK AO2 T02120086 PWINO =
2018-06-19 19:15 METAR K1P1 192315Z AUTO 29006KT CLR 22/09 A2984 RMK AO2 T02160085 PWINO =
2018-06-19 18:55 METAR K1P1 192255Z AUTO 31007KT CLR 22/08 A2984 RMK AO2 T02200079 PWINO =
2018-06-19 18:35 METAR K1P1 192235Z AUTO 29009KT CLR 22/08 A2984 RMK AO2 T02210075 PWINO =
2018-06-19 18:15 METAR K1P1 192215Z AUTO 30010G16KT CLR 22/07 A2983 RMK AO2 T02220072 PWINO =
2018-06-19 17:55 METAR K1P1 192155Z AUTO 30010KT CLR 23/07 A2982 RMK AO2 T02300074 PWINO =
2018-06-19 17:35 METAR K1P1 192135Z AUTO 29011G15KT CLR 23/09 A2982 RMK AO2 T02290086 PWINO =
2018-06-19 17:15 METAR K1P1 192115Z AUTO 30010G19KT CLR 23/08 A2982 RMK AO2 T02280081 PWINO =
2018-06-19 16:55 METAR K1P1 192055Z AUTO 29012G17KT CLR 23/08 A2982 RMK AO2 T02330079 PWINO =
2018-06-19 16:35 METAR K1P1 192035Z AUTO 30010G16KT CLR 24/08 A2981 RMK AO2 T02350077 PWINO =
2018-06-19 16:15 METAR K1P1 192015Z AUTO 29008G17KT CLR 23/08 A2982 RMK AO2 T02340077 PWINO =
2018-06-19 15:55 METAR K1P1 191955Z AUTO 29010G14KT 270V330 CLR 24/08 A2981 RMK AO2 T02370080
                 PWINO =
2018-06-19 15:35 METAR K1P1 191935Z AUTO 31008G15KT CLR 24/09 A2981 RMK AO2 T02350091 PWINO =
2018-06-19 15:15 METAR K1P1 191915Z AUTO 32007G22KT CLR 23/08 A2981 RMK AO2 T02280079 PWINO =
2018-06-19 14:55 METAR K1P1 191855Z AUTO 30010G20KT CLR 23/08 A2981 RMK AO2 T02260084 PWINO =
2018-06-19 14:35 METAR K1P1 191835Z AUTO 28011G17KT CLR 23/10 A2981 RMK AO2 T02250096 PWINO =
2018-06-19 14:15 METAR K1P1 191815Z AUTO 30011G18KT CLR 22/10 A2982 RMK AO2 T02230099 PWINO =
2018-06-19 13:55 METAR K1P1 191755Z AUTO 30013G19KT CLR 22/10 A2982 RMK AO2 T02180101 10220 20191
                 PWINO =
2018-06-19 13:35 METAR K1P1 191735Z AUTO 30013G20KT CLR 22/11 A2982 RMK AO2 T02160109 PWINO =
2018-06-19 13:15 METAR K1P1 191715Z AUTO 30010G17KT CLR 21/11 A2982 RMK AO2 T02120106 PWINO =
2018-06-19 12:55 METAR K1P1 191655Z AUTO 31014G20KT CLR 21/11 A2982 RMK AO2 T02100109 PWINO =
2018-06-19 12:35 METAR K1P1 191635Z AUTO 29008G18KT CLR 21/11 A2982 RMK AO2 T02050107 PWINO =
2018-06-19 12:15 METAR K1P1 191615Z AUTO 32010G17KT CLR 21/12 A2982 RMK AO2 T02080118 PWINO =
2018-06-19 11:55 METAR K1P1 191555Z AUTO 28012G17KT SCT042 21/11 A2982 RMK AO2 T02050112 PWINO =
2018-06-19 11:35 METAR K1P1 191535Z AUTO 29012G17KT SCT042 20/11 A2982 RMK AO2 T02000109 PWINO =
2018-06-19 11:15 METAR K1P1 191515Z AUTO 32008G16KT 260V010 SCT043 21/11 A2982 RMK AO2 T02060114
                 PWINO =

Support USWX by starting your Amazon purchase here.